sensor_id;sensor_type;location;lat;lon;timestamp;P1;durP1;ratioP1;P2;durP2;ratioP2
55362;SDS011;41244;49.242;9.060;2023-06-14T00:00:50;6.53;;;5.82;;
55362;SDS011;41244;49.242;9.060;2023-06-14T00:03:17;5.97;;;5.38;;
55362;SDS011;41244;49.242;9.060;2023-06-14T00:05:47;9.02;;;5.85;;
55362;SDS011;41244;49.242;9.060;2023-06-14T00:08:13;6.00;;;5.40;;
55362;SDS011;41244;49.242;9.060;2023-06-14T00:10:39;6.72;;;5.32;;
55362;SDS011;41244;49.242;9.060;2023-06-14T00:13:07;6.95;;;5.78;;
55362;SDS011;41244;49.242;9.060;2023-06-14T00:15:34;9.85;;;6.32;;
55362;SDS011;41244;49.242;9.060;2023-06-14T00:18:00;7.75;;;5.97;;
55362;SDS011;41244;49.242;9.060;2023-06-14T00:20:27;7.72;;;5.57;;
55362;SDS011;41244;49.242;9.060;2023-06-14T00:22:54;6.88;;;5.65;;
55362;SDS011;41244;49.242;9.060;2023-06-14T00:25:21;9.63;;;5.97;;
55362;SDS011;41244;49.242;9.060;2023-06-14T00:27:50;8.18;;;5.88;;
55362;SDS011;41244;49.242;9.060;2023-06-14T00:30:16;7.10;;;5.80;;
55362;SDS011;41244;49.242;9.060;2023-06-14T00:32:43;7.90;;;5.43;;
55362;SDS011;41244;49.242;9.060;2023-06-14T00:35:09;7.57;;;5.78;;
55362;SDS011;41244;49.242;9.060;2023-06-14T00:37:35;9.23;;;5.55;;
55362;SDS011;41244;49.242;9.060;2023-06-14T00:40:02;10.45;;;5.57;;
55362;SDS011;41244;49.242;9.060;2023-06-14T00:42:29;11.18;;;5.90;;
55362;SDS011;41244;49.242;9.060;2023-06-14T00:44:55;10.15;;;6.20;;
55362;SDS011;41244;49.242;9.060;2023-06-14T00:47:21;6.75;;;6.07;;
55362;SDS011;41244;49.242;9.060;2023-06-14T00:49:47;9.00;;;5.72;;
55362;SDS011;41244;49.242;9.060;2023-06-14T00:52:18;9.60;;;5.78;;
55362;SDS011;41244;49.242;9.060;2023-06-14T00:54:44;8.07;;;6.00;;
55362;SDS011;41244;49.242;9.060;2023-06-14T00:57:10;7.40;;;5.70;;
55362;SDS011;41244;49.242;9.060;2023-06-14T00:59:38;7.47;;;5.90;;
55362;SDS011;41244;49.242;9.060;2023-06-14T01:02:11;7.70;;;5.50;;
55362;SDS011;41244;49.242;9.060;2023-06-14T01:04:37;7.07;;;6.35;;
55362;SDS011;41244;49.242;9.060;2023-06-14T01:09:53;6.00;;;5.40;;
55362;SDS011;41244;49.242;9.060;2023-06-14T01:15:18;8.07;;;5.95;;
55362;SDS011;41244;49.242;9.060;2023-06-14T01:17:46;7.70;;;5.75;;
55362;SDS011;41244;49.242;9.060;2023-06-14T01:20:16;7.22;;;5.90;;
55362;SDS011;41244;49.242;9.060;2023-06-14T01:22:54;6.43;;;5.72;;
55362;SDS011;41244;49.242;9.060;2023-06-14T01:25:20;10.63;;;6.22;;
55362;SDS011;41244;49.242;9.060;2023-06-14T01:27:48;7.97;;;5.78;;
55362;SDS011;41244;49.242;9.060;2023-06-14T01:30:23;8.43;;;6.20;;
55362;SDS011;41244;49.242;9.060;2023-06-14T01:32:53;14.07;;;6.70;;
55362;SDS011;41244;49.242;9.060;2023-06-14T01:35:20;11.05;;;6.28;;
55362;SDS011;41244;49.242;9.060;2023-06-14T01:37:47;8.55;;;5.88;;
55362;SDS011;41244;49.242;9.060;2023-06-14T01:40:14;7.70;;;6.10;;
55362;SDS011;41244;49.242;9.060;2023-06-14T01:42:40;6.35;;;5.82;;
55362;SDS011;41244;49.242;9.060;2023-06-14T01:45:07;7.78;;;6.25;;
55362;SDS011;41244;49.242;9.060;2023-06-14T01:47:34;10.57;;;6.05;;
55362;SDS011;41244;49.242;9.060;2023-06-14T01:50:01;8.07;;;6.20;;
55362;SDS011;41244;49.242;9.060;2023-06-14T01:52:30;7.10;;;5.95;;
55362;SDS011;41244;49.242;9.060;2023-06-14T01:54:56;9.23;;;6.32;;
55362;SDS011;41244;49.242;9.060;2023-06-14T01:57:23;7.45;;;6.45;;
55362;SDS011;41244;49.242;9.060;2023-06-14T01:59:50;9.30;;;6.40;;
55362;SDS011;41244;49.242;9.060;2023-06-14T02:02:16;9.85;;;6.22;;
55362;SDS011;41244;49.242;9.060;2023-06-14T02:04:41;8.43;;;5.80;;
55362;SDS011;41244;49.242;9.060;2023-06-14T02:07:07;8.70;;;5.88;;
55362;SDS011;41244;49.242;9.060;2023-06-14T02:09:33;10.77;;;6.35;;
55362;SDS011;41244;49.242;9.060;2023-06-14T02:12:02;11.60;;;7.20;;
55362;SDS011;41244;49.242;9.060;2023-06-14T02:14:28;8.77;;;6.45;;
55362;SDS011;41244;49.242;9.060;2023-06-14T02:16:54;8.77;;;6.13;;
55362;SDS011;41244;49.242;9.060;2023-06-14T02:19:20;8.13;;;6.95;;
55362;SDS011;41244;49.242;9.060;2023-06-14T02:21:46;10.05;;;6.95;;
55362;SDS011;41244;49.242;9.060;2023-06-14T02:24:12;9.23;;;6.40;;
55362;SDS011;41244;49.242;9.060;2023-06-14T02:26:39;8.68;;;6.07;;
55362;SDS011;41244;49.242;9.060;2023-06-14T02:29:06;6.65;;;5.95;;
55362;SDS011;41244;49.242;9.060;2023-06-14T02:31:35;8.40;;;6.25;;
55362;SDS011;41244;49.242;9.060;2023-06-14T02:34:01;7.57;;;6.78;;
55362;SDS011;41244;49.242;9.060;2023-06-14T02:36:27;11.02;;;6.50;;
55362;SDS011;41244;49.242;9.060;2023-06-14T02:38:55;7.75;;;6.32;;
55362;SDS011;41244;49.242;9.060;2023-06-14T02:41:23;10.40;;;6.05;;
55362;SDS011;41244;49.242;9.060;2023-06-14T02:43:49;6.70;;;6.00;;
55362;SDS011;41244;49.242;9.060;2023-06-14T02:46:15;8.55;;;6.47;;
55362;SDS011;41244;49.242;9.060;2023-06-14T02:48:41;7.68;;;6.18;;
55362;SDS011;41244;49.242;9.060;2023-06-14T02:51:06;7.45;;;6.38;;
55362;SDS011;41244;49.242;9.060;2023-06-14T02:53:34;8.45;;;6.60;;
55362;SDS011;41244;49.242;9.060;2023-06-14T02:56:01;6.90;;;6.13;;
55362;SDS011;41244;49.242;9.060;2023-06-14T02:58:29;9.20;;;6.63;;
55362;SDS011;41244;49.242;9.060;2023-06-14T03:00:55;6.63;;;5.95;;
55362;SDS011;41244;49.242;9.060;2023-06-14T03:03:21;12.20;;;6.50;;
55362;SDS011;41244;49.242;9.060;2023-06-14T03:05:49;7.90;;;6.40;;
55362;SDS011;41244;49.242;9.060;2023-06-14T03:08:16;7.25;;;6.55;;
55362;SDS011;41244;49.242;9.060;2023-06-14T03:10:44;13.07;;;6.85;;
55362;SDS011;41244;49.242;9.060;2023-06-14T03:13:14;7.20;;;6.25;;
55362;SDS011;41244;49.242;9.060;2023-06-14T03:15:41;8.13;;;6.43;;
55362;SDS011;41244;49.242;9.060;2023-06-14T03:18:08;9.05;;;6.55;;
55362;SDS011;41244;49.242;9.060;2023-06-14T03:20:34;7.50;;;5.95;;
55362;SDS011;41244;49.242;9.060;2023-06-14T03:23:01;7.55;;;6.40;;
55362;SDS011;41244;49.242;9.060;2023-06-14T03:25:28;9.07;;;6.50;;
55362;SDS011;41244;49.242;9.060;2023-06-14T03:27:54;8.07;;;6.72;;
55362;SDS011;41244;49.242;9.060;2023-06-14T03:30:21;7.70;;;6.90;;
55362;SDS011;41244;49.242;9.060;2023-06-14T03:32:47;8.43;;;6.43;;
55362;SDS011;41244;49.242;9.060;2023-06-14T03:35:12;12.80;;;6.57;;
55362;SDS011;41244;49.242;9.060;2023-06-14T03:37:45;7.05;;;6.13;;
55362;SDS011;41244;49.242;9.060;2023-06-14T03:40:12;8.10;;;6.57;;
55362;SDS011;41244;49.242;9.060;2023-06-14T03:42:40;8.73;;;6.53;;
55362;SDS011;41244;49.242;9.060;2023-06-14T03:45:06;6.38;;;5.72;;
55362;SDS011;41244;49.242;9.060;2023-06-14T03:47:32;8.23;;;6.85;;
55362;SDS011;41244;49.242;9.060;2023-06-14T03:49:59;10.05;;;6.60;;
55362;SDS011;41244;49.242;9.060;2023-06-14T03:52:25;10.35;;;6.50;;
55362;SDS011;41244;49.242;9.060;2023-06-14T03:54:51;7.43;;;6.60;;
55362;SDS011;41244;49.242;9.060;2023-06-14T03:57:17;9.88;;;6.90;;
55362;SDS011;41244;49.242;9.060;2023-06-14T03:59:43;11.70;;;6.78;;
55362;SDS011;41244;49.242;9.060;2023-06-14T04:02:08;9.30;;;6.50;;
55362;SDS011;41244;49.242;9.060;2023-06-14T04:04:34;9.25;;;6.38;;
55362;SDS011;41244;49.242;9.060;2023-06-14T04:07:01;6.97;;;6.18;;
55362;SDS011;41244;49.242;9.060;2023-06-14T04:09:28;9.70;;;6.60;;
55362;SDS011;41244;49.242;9.060;2023-06-14T04:11:55;9.27;;;6.55;;
55362;SDS011;41244;49.242;9.060;2023-06-14T04:14:21;8.80;;;6.45;;
55362;SDS011;41244;49.242;9.060;2023-06-14T04:16:47;9.05;;;6.57;;
55362;SDS011;41244;49.242;9.060;2023-06-14T04:19:14;9.27;;;6.53;;
55362;SDS011;41244;49.242;9.060;2023-06-14T04:21:40;8.52;;;6.22;;
55362;SDS011;41244;49.242;9.060;2023-06-14T04:24:06;7.28;;;6.53;;
55362;SDS011;41244;49.242;9.060;2023-06-14T04:26:38;7.30;;;6.43;;
55362;SDS011;41244;49.242;9.060;2023-06-14T04:29:09;7.20;;;6.47;;
55362;SDS011;41244;49.242;9.060;2023-06-14T04:31:41;8.73;;;6.57;;
55362;SDS011;41244;49.242;9.060;2023-06-14T04:34:07;9.10;;;6.72;;
55362;SDS011;41244;49.242;9.060;2023-06-14T04:36:33;8.23;;;6.22;;
55362;SDS011;41244;49.242;9.060;2023-06-14T04:39:01;8.10;;;6.50;;
55362;SDS011;41244;49.242;9.060;2023-06-14T04:41:29;8.93;;;6.95;;
55362;SDS011;41244;49.242;9.060;2023-06-14T04:43:59;11.80;;;6.50;;
55362;SDS011;41244;49.242;9.060;2023-06-14T04:46:29;9.13;;;6.18;;
55362;SDS011;41244;49.242;9.060;2023-06-14T04:48:57;10.60;;;6.88;;
55362;SDS011;41244;49.242;9.060;2023-06-14T04:51:27;10.68;;;6.50;;
55362;SDS011;41244;49.242;9.060;2023-06-14T04:53:57;10.45;;;6.57;;
55362;SDS011;41244;49.242;9.060;2023-06-14T04:56:24;8.98;;;6.68;;
55362;SDS011;41244;49.242;9.060;2023-06-14T04:58:50;11.38;;;6.63;;
55362;SDS011;41244;49.242;9.060;2023-06-14T05:01:17;16.55;;;6.20;;
55362;SDS011;41244;49.242;9.060;2023-06-14T05:03:45;10.38;;;6.78;;
55362;SDS011;41244;49.242;9.060;2023-06-14T05:06:14;15.38;;;6.25;;
55362;SDS011;41244;49.242;9.060;2023-06-14T05:08:40;11.05;;;6.43;;
55362;SDS011;41244;49.242;9.060;2023-06-14T05:11:06;10.85;;;6.70;;
55362;SDS011;41244;49.242;9.060;2023-06-14T05:13:32;10.52;;;7.07;;
55362;SDS011;41244;49.242;9.060;2023-06-14T05:15:59;8.75;;;5.97;;
55362;SDS011;41244;49.242;9.060;2023-06-14T05:18:25;11.13;;;6.68;;
55362;SDS011;41244;49.242;9.060;2023-06-14T05:20:51;9.68;;;7.15;;
55362;SDS011;41244;49.242;9.060;2023-06-14T05:23:17;7.35;;;6.10;;
55362;SDS011;41244;49.242;9.060;2023-06-14T05:25:43;8.45;;;6.13;;
55362;SDS011;41244;49.242;9.060;2023-06-14T05:28:10;11.93;;;6.07;;
55362;SDS011;41244;49.242;9.060;2023-06-14T05:30:37;9.77;;;5.75;;
55362;SDS011;41244;49.242;9.060;2023-06-14T05:33:03;14.02;;;6.28;;
55362;SDS011;41244;49.242;9.060;2023-06-14T05:35:29;7.72;;;6.50;;
55362;SDS011;41244;49.242;9.060;2023-06-14T05:37:55;6.68;;;5.90;;
55362;SDS011;41244;49.242;9.060;2023-06-14T05:40:21;11.45;;;6.07;;
55362;SDS011;41244;49.242;9.060;2023-06-14T05:42:47;13.32;;;7.40;;
55362;SDS011;41244;49.242;9.060;2023-06-14T05:45:12;10.27;;;7.32;;
55362;SDS011;41244;49.242;9.060;2023-06-14T05:47:40;11.18;;;7.00;;
55362;SDS011;41244;49.242;9.060;2023-06-14T05:50:07;10.43;;;7.20;;
55362;SDS011;41244;49.242;9.060;2023-06-14T05:52:33;8.95;;;5.88;;
55362;SDS011;41244;49.242;9.060;2023-06-14T05:55:00;7.32;;;5.97;;
55362;SDS011;41244;49.242;9.060;2023-06-14T05:57:26;8.88;;;5.82;;
55362;SDS011;41244;49.242;9.060;2023-06-14T05:59:52;8.95;;;6.22;;
55362;SDS011;41244;49.242;9.060;2023-06-14T06:02:18;9.38;;;6.07;;
55362;SDS011;41244;49.242;9.060;2023-06-14T06:04:43;10.85;;;5.65;;
55362;SDS011;41244;49.242;9.060;2023-06-14T06:07:10;9.00;;;6.63;;
55362;SDS011;41244;49.242;9.060;2023-06-14T06:09:35;7.50;;;6.18;;
55362;SDS011;41244;49.242;9.060;2023-06-14T06:12:01;8.73;;;5.88;;
55362;SDS011;41244;49.242;9.060;2023-06-14T06:14:27;11.30;;;5.75;;
55362;SDS011;41244;49.242;9.060;2023-06-14T06:16:53;10.27;;;6.32;;
55362;SDS011;41244;49.242;9.060;2023-06-14T06:19:19;9.27;;;6.47;;
55362;SDS011;41244;49.242;9.060;2023-06-14T06:21:45;12.02;;;6.30;;
55362;SDS011;41244;49.242;9.060;2023-06-14T06:24:11;11.73;;;6.10;;
55362;SDS011;41244;49.242;9.060;2023-06-14T06:26:36;12.40;;;6.00;;
55362;SDS011;41244;49.242;9.060;2023-06-14T06:29:03;9.70;;;5.78;;
55362;SDS011;41244;49.242;9.060;2023-06-14T06:31:29;10.13;;;5.68;;
55362;SDS011;41244;49.242;9.060;2023-06-14T06:33:55;10.25;;;6.07;;
55362;SDS011;41244;49.242;9.060;2023-06-14T06:36:21;8.40;;;7.38;;
55362;SDS011;41244;49.242;9.060;2023-06-14T06:38:47;11.10;;;6.25;;
55362;SDS011;41244;49.242;9.060;2023-06-14T06:41:13;7.40;;;6.15;;
55362;SDS011;41244;49.242;9.060;2023-06-14T06:43:39;10.15;;;6.13;;
55362;SDS011;41244;49.242;9.060;2023-06-14T06:46:05;8.25;;;5.80;;
55362;SDS011;41244;49.242;9.060;2023-06-14T06:48:31;6.82;;;5.45;;
55362;SDS011;41244;49.242;9.060;2023-06-14T06:50:56;7.40;;;6.05;;
55362;SDS011;41244;49.242;9.060;2023-06-14T06:53:22;7.03;;;5.72;;
55362;SDS011;41244;49.242;9.060;2023-06-14T06:55:48;8.57;;;5.35;;
55362;SDS011;41244;49.242;9.060;2023-06-14T06:58:14;10.30;;;5.82;;
55362;SDS011;41244;49.242;9.060;2023-06-14T07:00:40;11.00;;;7.65;;
55362;SDS011;41244;49.242;9.060;2023-06-14T07:03:06;8.50;;;5.40;;
55362;SDS011;41244;49.242;9.060;2023-06-14T07:05:32;7.25;;;6.13;;
55362;SDS011;41244;49.242;9.060;2023-06-14T07:07:58;12.20;;;5.85;;
55362;SDS011;41244;49.242;9.060;2023-06-14T07:10:24;8.48;;;5.35;;
55362;SDS011;41244;49.242;9.060;2023-06-14T07:12:50;8.10;;;6.00;;
55362;SDS011;41244;49.242;9.060;2023-06-14T07:15:16;6.38;;;5.72;;
55362;SDS011;41244;49.242;9.060;2023-06-14T07:17:42;9.40;;;6.13;;
55362;SDS011;41244;49.242;9.060;2023-06-14T07:20:08;10.00;;;5.90;;
55362;SDS011;41244;49.242;9.060;2023-06-14T07:22:38;9.23;;;5.93;;
55362;SDS011;41244;49.242;9.060;2023-06-14T07:25:11;11.88;;;6.28;;
55362;SDS011;41244;49.242;9.060;2023-06-14T07:27:39;7.70;;;5.45;;
55362;SDS011;41244;49.242;9.060;2023-06-14T07:30:08;8.65;;;5.75;;
55362;SDS011;41244;49.242;9.060;2023-06-14T07:32:35;9.18;;;5.50;;
55362;SDS011;41244;49.242;9.060;2023-06-14T07:35:01;9.35;;;5.78;;
55362;SDS011;41244;49.242;9.060;2023-06-14T07:37:28;7.50;;;5.30;;
55362;SDS011;41244;49.242;9.060;2023-06-14T07:39:53;8.15;;;5.45;;
55362;SDS011;41244;49.242;9.060;2023-06-14T07:42:19;9.63;;;5.53;;
55362;SDS011;41244;49.242;9.060;2023-06-14T07:44:45;7.57;;;5.20;;
55362;SDS011;41244;49.242;9.060;2023-06-14T07:47:11;9.65;;;5.15;;
55362;SDS011;41244;49.242;9.060;2023-06-14T07:49:37;6.10;;;5.00;;
55362;SDS011;41244;49.242;9.060;2023-06-14T07:52:03;8.82;;;5.47;;
55362;SDS011;41244;49.242;9.060;2023-06-14T07:54:30;6.25;;;5.53;;
55362;SDS011;41244;49.242;9.060;2023-06-14T07:56:57;6.00;;;5.40;;
55362;SDS011;41244;49.242;9.060;2023-06-14T07:59:25;6.13;;;5.38;;
55362;SDS011;41244;49.242;9.060;2023-06-14T08:01:51;6.18;;;5.00;;
55362;SDS011;41244;49.242;9.060;2023-06-14T08:04:17;7.45;;;5.35;;
55362;SDS011;41244;49.242;9.060;2023-06-14T08:06:43;8.32;;;5.75;;
55362;SDS011;41244;49.242;9.060;2023-06-14T08:09:13;8.02;;;5.47;;
55362;SDS011;41244;49.242;9.060;2023-06-14T08:11:38;8.25;;;5.60;;
55362;SDS011;41244;49.242;9.060;2023-06-14T08:14:04;7.90;;;5.35;;
55362;SDS011;41244;49.242;9.060;2023-06-14T08:16:30;9.10;;;5.30;;
55362;SDS011;41244;49.242;9.060;2023-06-14T08:18:56;9.98;;;5.43;;
55362;SDS011;41244;49.242;9.060;2023-06-14T08:21:21;8.63;;;5.10;;
55362;SDS011;41244;49.242;9.060;2023-06-14T08:23:47;9.70;;;5.50;;
55362;SDS011;41244;49.242;9.060;2023-06-14T08:26:13;11.23;;;5.80;;
55362;SDS011;41244;49.242;9.060;2023-06-14T08:28:39;8.05;;;4.95;;
55362;SDS011;41244;49.242;9.060;2023-06-14T08:31:05;9.68;;;5.80;;
55362;SDS011;41244;49.242;9.060;2023-06-14T08:33:30;8.18;;;5.47;;
55362;SDS011;41244;49.242;9.060;2023-06-14T08:35:59;6.97;;;5.28;;
55362;SDS011;41244;49.242;9.060;2023-06-14T08:38:25;9.43;;;5.40;;
55362;SDS011;41244;49.242;9.060;2023-06-14T08:40:51;9.98;;;5.20;;
55362;SDS011;41244;49.242;9.060;2023-06-14T08:43:18;6.10;;;5.20;;
55362;SDS011;41244;49.242;9.060;2023-06-14T08:45:44;11.50;;;5.82;;
55362;SDS011;41244;49.242;9.060;2023-06-14T08:48:11;8.00;;;5.10;;
55362;SDS011;41244;49.242;9.060;2023-06-14T08:50:42;8.50;;;5.13;;
55362;SDS011;41244;49.242;9.060;2023-06-14T08:53:09;7.18;;;5.47;;
55362;SDS011;41244;49.242;9.060;2023-06-14T08:55:36;6.60;;;5.30;;
55362;SDS011;41244;49.242;9.060;2023-06-14T08:58:04;8.90;;;5.35;;
55362;SDS011;41244;49.242;9.060;2023-06-14T09:00:30;6.40;;;5.10;;
55362;SDS011;41244;49.242;9.060;2023-06-14T09:02:57;7.20;;;5.30;;
55362;SDS011;41244;49.242;9.060;2023-06-14T09:05:26;6.55;;;5.35;;
55362;SDS011;41244;49.242;9.060;2023-06-14T09:07:53;7.13;;;4.97;;
55362;SDS011;41244;49.242;9.060;2023-06-14T09:10:25;7.13;;;5.25;;
55362;SDS011;41244;49.242;9.060;2023-06-14T09:12:53;6.05;;;5.30;;
55362;SDS011;41244;49.242;9.060;2023-06-14T09:15:18;5.72;;;4.60;;
55362;SDS011;41244;49.242;9.060;2023-06-14T09:17:45;7.63;;;4.90;;
55362;SDS011;41244;49.242;9.060;2023-06-14T09:20:11;8.07;;;5.10;;
55362;SDS011;41244;49.242;9.060;2023-06-14T09:22:43;9.25;;;5.65;;
55362;SDS011;41244;49.242;9.060;2023-06-14T09:25:10;6.20;;;5.40;;
55362;SDS011;41244;49.242;9.060;2023-06-14T09:27:38;7.32;;;4.95;;
55362;SDS011;41244;49.242;9.060;2023-06-14T09:30:06;8.02;;;5.10;;
55362;SDS011;41244;49.242;9.060;2023-06-14T09:32:37;5.85;;;5.25;;
55362;SDS011;41244;49.242;9.060;2023-06-14T09:35:07;8.48;;;5.05;;
55362;SDS011;41244;49.242;9.060;2023-06-14T09:37:34;6.93;;;4.95;;
55362;SDS011;41244;49.242;9.060;2023-06-14T09:40:00;6.40;;;5.18;;
55362;SDS011;41244;49.242;9.060;2023-06-14T09:42:26;8.10;;;5.00;;
55362;SDS011;41244;49.242;9.060;2023-06-14T09:44:54;7.20;;;4.95;;
55362;SDS011;41244;49.242;9.060;2023-06-14T09:47:21;7.00;;;4.90;;
55362;SDS011;41244;49.242;9.060;2023-06-14T09:49:48;7.05;;;4.72;;
55362;SDS011;41244;49.242;9.060;2023-06-14T09:52:15;7.28;;;4.75;;
55362;SDS011;41244;49.242;9.060;2023-06-14T09:54:43;8.57;;;5.20;;
55362;SDS011;41244;49.242;9.060;2023-06-14T09:57:12;5.90;;;4.75;;
55362;SDS011;41244;49.242;9.060;2023-06-14T09:59:41;9.82;;;5.00;;
55362;SDS011;41244;49.242;9.060;2023-06-14T10:02:15;6.28;;;5.07;;
55362;SDS011;41244;49.242;9.060;2023-06-14T10:04:53;6.38;;;4.60;;
55362;SDS011;41244;49.242;9.060;2023-06-14T10:07:30;10.05;;;5.20;;
55362;SDS011;41244;49.242;9.060;2023-06-14T10:10:04;6.32;;;4.80;;
55362;SDS011;41244;49.242;9.060;2023-06-14T10:12:31;7.28;;;5.10;;
55362;SDS011;41244;49.242;9.060;2023-06-14T10:14:57;7.07;;;4.65;;
55362;SDS011;41244;49.242;9.060;2023-06-14T10:20:16;7.97;;;4.70;;
55362;SDS011;41244;49.242;9.060;2023-06-14T10:23:10;5.45;;;4.85;;
55362;SDS011;41244;49.242;9.060;2023-06-14T10:25:45;10.43;;;4.70;;
55362;SDS011;41244;49.242;9.060;2023-06-14T10:28:18;8.50;;;4.40;;
55362;SDS011;41244;49.242;9.060;2023-06-14T10:33:36;5.68;;;4.68;;
55362;SDS011;41244;49.242;9.060;2023-06-14T10:38:34;5.50;;;4.65;;
55362;SDS011;41244;49.242;9.060;2023-06-14T10:41:02;7.00;;;4.30;;
55362;SDS011;41244;49.242;9.060;2023-06-14T10:43:29;6.15;;;4.10;;
55362;SDS011;41244;49.242;9.060;2023-06-14T10:48:57;5.38;;;4.03;;
55362;SDS011;41244;49.242;9.060;2023-06-14T10:51:24;8.05;;;4.60;;
55362;SDS011;41244;49.242;9.060;2023-06-14T10:53:50;4.70;;;4.20;;
55362;SDS011;41244;49.242;9.060;2023-06-14T10:56:22;6.55;;;4.25;;
55362;SDS011;41244;49.242;9.060;2023-06-14T10:58:53;7.57;;;4.43;;
55362;SDS011;41244;49.242;9.060;2023-06-14T11:01:31;7.78;;;4.20;;
55362;SDS011;41244;49.242;9.060;2023-06-14T11:04:15;5.55;;;4.28;;
55362;SDS011;41244;49.242;9.060;2023-06-14T11:06:49;6.47;;;4.45;;
55362;SDS011;41244;49.242;9.060;2023-06-14T11:12:08;6.25;;;4.10;;
55362;SDS011;41244;49.242;9.060;2023-06-14T11:14:36;8.25;;;4.45;;
55362;SDS011;41244;49.242;9.060;2023-06-14T11:17:03;5.65;;;4.88;;
55362;SDS011;41244;49.242;9.060;2023-06-14T11:19:29;6.95;;;4.22;;
55362;SDS011;41244;49.242;9.060;2023-06-14T11:21:56;7.35;;;4.57;;
55362;SDS011;41244;49.242;9.060;2023-06-14T11:24:22;5.15;;;4.63;;
55362;SDS011;41244;49.242;9.060;2023-06-14T11:26:48;6.95;;;4.70;;
55362;SDS011;41244;49.242;9.060;2023-06-14T11:29:15;5.80;;;4.38;;
55362;SDS011;41244;49.242;9.060;2023-06-14T11:31:44;7.88;;;4.65;;
55362;SDS011;41244;49.242;9.060;2023-06-14T11:34:10;8.43;;;4.93;;
55362;SDS011;41244;49.242;9.060;2023-06-14T11:36:37;9.23;;;4.38;;
55362;SDS011;41244;49.242;9.060;2023-06-14T11:39:04;5.32;;;4.65;;
55362;SDS011;41244;49.242;9.060;2023-06-14T11:41:36;7.40;;;4.70;;
55362;SDS011;41244;49.242;9.060;2023-06-14T11:44:10;7.60;;;4.55;;
55362;SDS011;41244;49.242;9.060;2023-06-14T11:46:36;8.07;;;5.18;;
55362;SDS011;41244;49.242;9.060;2023-06-14T11:49:03;7.18;;;4.22;;
55362;SDS011;41244;49.242;9.060;2023-06-14T11:51:32;6.13;;;4.63;;
55362;SDS011;41244;49.242;9.060;2023-06-14T11:53:59;6.95;;;4.47;;
55362;SDS011;41244;49.242;9.060;2023-06-14T11:56:29;7.53;;;5.13;;
55362;SDS011;41244;49.242;9.060;2023-06-14T11:58:56;6.75;;;4.72;;
55362;SDS011;41244;49.242;9.060;2023-06-14T12:01:22;8.88;;;5.40;;
55362;SDS011;41244;49.242;9.060;2023-06-14T12:03:52;5.22;;;4.40;;
55362;SDS011;41244;49.242;9.060;2023-06-14T12:06:30;4.97;;;4.40;;
55362;SDS011;41244;49.242;9.060;2023-06-14T12:09:04;5.10;;;4.25;;
55362;SDS011;41244;49.242;9.060;2023-06-14T12:11:35;5.53;;;4.60;;
55362;SDS011;41244;49.242;9.060;2023-06-14T12:14:02;8.10;;;4.55;;
55362;SDS011;41244;49.242;9.060;2023-06-14T12:16:31;7.38;;;6.05;;
55362;SDS011;41244;49.242;9.060;2023-06-14T12:19:00;7.47;;;5.00;;
55362;SDS011;41244;49.242;9.060;2023-06-14T12:21:35;7.55;;;4.63;;
55362;SDS011;41244;49.242;9.060;2023-06-14T12:24:03;6.80;;;4.93;;
55362;SDS011;41244;49.242;9.060;2023-06-14T12:26:31;9.55;;;5.03;;
55362;SDS011;41244;49.242;9.060;2023-06-14T12:28:58;5.90;;;4.57;;
55362;SDS011;41244;49.242;9.060;2023-06-14T12:31:24;6.30;;;4.40;;
55362;SDS011;41244;49.242;9.060;2023-06-14T12:33:51;6.18;;;5.18;;
55362;SDS011;41244;49.242;9.060;2023-06-14T12:36:17;5.63;;;4.70;;
55362;SDS011;41244;49.242;9.060;2023-06-14T12:38:43;7.00;;;4.75;;
55362;SDS011;41244;49.242;9.060;2023-06-14T12:41:09;5.00;;;4.25;;
55362;SDS011;41244;49.242;9.060;2023-06-14T12:43:34;6.78;;;4.63;;
55362;SDS011;41244;49.242;9.060;2023-06-14T12:46:00;5.60;;;5.10;;
55362;SDS011;41244;49.242;9.060;2023-06-14T12:48:26;9.05;;;4.68;;
55362;SDS011;41244;49.242;9.060;2023-06-14T12:50:52;7.40;;;4.18;;
55362;SDS011;41244;49.242;9.060;2023-06-14T12:53:18;10.20;;;5.32;;
55362;SDS011;41244;49.242;9.060;2023-06-14T12:55:45;9.45;;;8.32;;
55362;SDS011;41244;49.242;9.060;2023-06-14T12:58:10;20.73;;;6.25;;
55362;SDS011;41244;49.242;9.060;2023-06-14T13:00:39;8.05;;;4.78;;
55362;SDS011;41244;49.242;9.060;2023-06-14T13:03:05;6.35;;;4.55;;
55362;SDS011;41244;49.242;9.060;2023-06-14T13:05:31;5.70;;;4.80;;
55362;SDS011;41244;49.242;9.060;2023-06-14T13:07:58;6.75;;;5.00;;
55362;SDS011;41244;49.242;9.060;2023-06-14T13:10:25;6.05;;;4.32;;
55362;SDS011;41244;49.242;9.060;2023-06-14T13:12:52;5.28;;;4.78;;
55362;SDS011;41244;49.242;9.060;2023-06-14T13:15:17;5.75;;;4.68;;
55362;SDS011;41244;49.242;9.060;2023-06-14T13:17:43;6.88;;;4.47;;
55362;SDS011;41244;49.242;9.060;2023-06-14T13:20:13;7.63;;;4.32;;
55362;SDS011;41244;49.242;9.060;2023-06-14T13:22:39;6.07;;;4.40;;
55362;SDS011;41244;49.242;9.060;2023-06-14T13:25:05;6.10;;;4.78;;
55362;SDS011;41244;49.242;9.060;2023-06-14T13:27:31;7.88;;;4.28;;
55362;SDS011;41244;49.242;9.060;2023-06-14T13:29:57;5.60;;;4.30;;
55362;SDS011;41244;49.242;9.060;2023-06-14T13:32:23;6.30;;;4.68;;
55362;SDS011;41244;49.242;9.060;2023-06-14T13:34:49;5.72;;;5.13;;
55362;SDS011;41244;49.242;9.060;2023-06-14T13:37:15;8.02;;;4.70;;
55362;SDS011;41244;49.242;9.060;2023-06-14T13:39:41;5.47;;;4.20;;
55362;SDS011;41244;49.242;9.060;2023-06-14T13:42:07;6.78;;;4.88;;
55362;SDS011;41244;49.242;9.060;2023-06-14T13:44:32;7.80;;;4.80;;
55362;SDS011;41244;49.242;9.060;2023-06-14T13:46:59;7.97;;;5.03;;
55362;SDS011;41244;49.242;9.060;2023-06-14T13:49:25;5.22;;;4.43;;
55362;SDS011;41244;49.242;9.060;2023-06-14T13:51:51;5.30;;;4.60;;
55362;SDS011;41244;49.242;9.060;2023-06-14T13:54:19;5.88;;;4.68;;
55362;SDS011;41244;49.242;9.060;2023-06-14T13:56:46;4.93;;;4.43;;
55362;SDS011;41244;49.242;9.060;2023-06-14T13:59:12;5.78;;;4.85;;
55362;SDS011;41244;49.242;9.060;2023-06-14T14:01:38;5.55;;;4.35;;
55362;SDS011;41244;49.242;9.060;2023-06-14T14:04:03;7.57;;;4.63;;
55362;SDS011;41244;49.242;9.060;2023-06-14T14:06:30;5.63;;;4.63;;
55362;SDS011;41244;49.242;9.060;2023-06-14T14:08:56;7.97;;;4.82;;
55362;SDS011;41244;49.242;9.060;2023-06-14T14:11:22;11.45;;;10.25;;
55362;SDS011;41244;49.242;9.060;2023-06-14T14:13:48;5.32;;;4.88;;
55362;SDS011;41244;49.242;9.060;2023-06-14T14:16:14;7.07;;;5.32;;
55362;SDS011;41244;49.242;9.060;2023-06-14T14:18:40;5.72;;;4.38;;
55362;SDS011;41244;49.242;9.060;2023-06-14T14:21:06;9.98;;;5.05;;
55362;SDS011;41244;49.242;9.060;2023-06-14T14:23:32;4.65;;;4.25;;
55362;SDS011;41244;49.242;9.060;2023-06-14T14:25:58;7.18;;;5.25;;
55362;SDS011;41244;49.242;9.060;2023-06-14T14:28:28;6.35;;;4.57;;
55362;SDS011;41244;49.242;9.060;2023-06-14T14:30:54;6.82;;;4.60;;
55362;SDS011;41244;49.242;9.060;2023-06-14T14:33:20;6.95;;;4.60;;
55362;SDS011;41244;49.242;9.060;2023-06-14T14:35:45;4.53;;;4.13;;
55362;SDS011;41244;49.242;9.060;2023-06-14T14:38:18;7.38;;;4.40;;
55362;SDS011;41244;49.242;9.060;2023-06-14T14:41:02;5.07;;;4.50;;
55362;SDS011;41244;49.242;9.060;2023-06-14T14:43:28;5.35;;;4.53;;
55362;SDS011;41244;49.242;9.060;2023-06-14T14:45:56;11.60;;;5.55;;
55362;SDS011;41244;49.242;9.060;2023-06-14T14:48:22;9.07;;;4.50;;
55362;SDS011;41244;49.242;9.060;2023-06-14T14:50:48;6.13;;;4.88;;
55362;SDS011;41244;49.242;9.060;2023-06-14T14:53:14;7.97;;;4.90;;
55362;SDS011;41244;49.242;9.060;2023-06-14T14:55:43;7.15;;;4.47;;
55362;SDS011;41244;49.242;9.060;2023-06-14T14:58:09;7.95;;;5.00;;
55362;SDS011;41244;49.242;9.060;2023-06-14T15:00:35;6.53;;;4.80;;
55362;SDS011;41244;49.242;9.060;2023-06-14T15:03:00;7.43;;;4.40;;
55362;SDS011;41244;49.242;9.060;2023-06-14T15:05:26;7.07;;;5.20;;